Time;durP1;ratioP1;P1;durP2;ratioP2;P2;SDS_P1;SDS_P2;PMS_P1;PMS_P2;Temp;Humidity;BMP_temperature;BMP_pressure;BME280_temperature;BME280_humidity;BME280_pressure;Samples;Min_cycle;Max_cycle;Signal;HPM_P1;HPM_P2
2022/10/11 00:00:05;;;;;;;9.10;3.90;;;;;;;16.81;75.67;100013.69;335922;29;1166;-69
2022/10/11 00:00:17;;;;;;;9.25;4.25;;;;;;;16.83;75.53;100013.63;336732;29;1308;-69
2022/10/11 00:00:31;;;;;;;8.73;4.45;;;;;;;16.87;75.47;100012.53;337075;29;1099;-69
2022/10/11 00:00:43;;;;;;;9.55;4.47;;;;;;;16.91;75.46;100014.06;336135;29;1982;-69
2022/10/11 00:00:55;;;;;;;10.38;4.47;;;;;;;16.90;75.21;100013.22;337040;29;1783;-69
2022/10/11 00:01:07;;;;;;;10.23;4.43;;;;;;;16.92;75.31;100010.50;337182;29;1043;-70
2022/10/11 00:01:19;;;;;;;9.68;4.50;;;;;;;16.94;75.15;100016.50;337085;29;1307;-69
2022/10/11 00:01:31;;;;;;;8.20;4.33;;;;;;;16.94;74.98;100013.88;336436;29;1734;-69
2022/10/11 00:01:43;;;;;;;8.38;4.07;;;;;;;16.97;75.02;100019.00;336448;29;1729;-70
2022/10/11 00:01:55;;;;;;;8.23;3.92;;;;;;;17.00;75.11;100016.19;337365;29;1029;-70
2022/10/11 00:02:07;;;;;;;7.82;3.55;;;;;;;17.03;74.72;100018.66;337461;29;1055;-69
2022/10/11 00:02:19;;;;;;;6.00;3.40;;;;;;;17.04;74.86;100020.34;336496;29;1212;-70
2022/10/11 00:02:31;;;;;;;6.25;3.72;;;;;;;17.05;74.87;100015.97;336024;29;1104;-69
2022/10/11 00:02:43;;;;;;;6.40;4.05;;;;;;;17.03;74.80;100013.41;335943;29;1248;-70
2022/10/11 00:02:56;;;;;;;6.82;4.20;;;;;;;17.04;74.75;100025.59;335873;29;1093;-70
2022/10/11 00:03:08;;;;;;;8.25;4.43;;;;;;;17.03;74.72;100017.81;336134;29;1272;-69
2022/10/11 00:03:20;;;;;;;7.63;4.40;;;;;;;17.04;75.04;100020.34;336421;29;1055;-69
2022/10/11 00:03:32;;;;;;;7.85;4.00;;;;;;;17.05;74.71;100018.59;335974;29;1029;-69
2022/10/11 00:03:44;;;;;;;8.10;3.97;;;;;;;17.07;74.73;100022.81;335785;29;1044;-68
2022/10/11 00:03:56;;;;;;;8.15;4.13;;;;;;;17.07;74.77;100025.44;335258;29;1208;-69
2022/10/11 00:04:08;;;;;;;8.98;4.53;;;;;;;17.06;74.70;100017.63;334719;29;1170;-69
2022/10/11 00:04:20;;;;;;;9.25;4.72;;;;;;;17.04;74.69;100020.34;334849;29;2447;-70
2022/10/11 00:04:32;;;;;;;10.45;4.47;;;;;;;17.01;74.85;100025.78;335783;29;1600;-70
2022/10/11 00:04:44;;;;;;;11.05;4.53;;;;;;;17.02;74.80;100021.38;336020;29;1145;-70
2022/10/11 00:04:56;;;;;;;10.25;4.40;;;;;;;16.97;74.91;100019.84;334829;29;1985;-69
2022/10/11 00:05:08;;;;;;;7.97;4.45;;;;;;;16.97;74.80;100024.25;334938;29;1058;-70
2022/10/11 00:05:20;;;;;;;8.63;4.40;;;;;;;16.95;74.88;100020.84;335365;29;1377;-69
2022/10/11 00:05:32;;;;;;;9.40;4.55;;;;;;;16.97;74.89;100021.63;335257;29;1303;-69
2022/10/11 00:05:44;;;;;;;7.85;4.40;;;;;;;16.97;75.13;100024.25;334540;29;1156;-69
2022/10/11 00:05:56;;;;;;;9.07;4.63;;;;;;;16.93;75.03;100020.91;336744;29;1281;-69
2022/10/11 00:06:08;;;;;;;10.13;4.43;;;;;;;16.95;75.05;100026.94;337164;29;1412;-70
2022/10/11 00:06:20;;;;;;;10.00;4.43;;;;;;;16.81;74.89;100026.81;335849;29;1281;-70
2022/10/11 00:06:32;;;;;;;8.38;4.30;;;;;;;16.80;75.36;100024.25;335241;29;2159;-70
2022/10/11 00:06:46;;;;;;;8.80;4.20;;;;;;;16.77;75.40;100023.47;335965;29;1672;-70
2022/10/11 00:06:58;;;;;;;11.02;4.40;;;;;;;16.79;75.42;100031.28;335953;29;1041;-70
2022/10/11 00:07:09;;;;;;;11.13;4.80;;;;;;;16.79;75.64;100023.41;336970;29;1200;-70
2022/10/11 00:07:21;;;;;;;9.68;4.82;;;;;;;16.81;75.40;100028.56;336935;29;1376;-70
2022/10/11 00:07:36;;;;;;;9.65;4.78;;;;;;;16.85;75.68;100024.91;337091;29;1056;-70
2022/10/11 00:07:48;;;;;;;9.43;4.60;;;;;;;16.77;75.75;100023.47;336643;29;2199;-70
2022/10/11 00:08:00;;;;;;;10.38;4.57;;;;;;;16.74;75.84;100028.91;336880;29;1627;-69
2022/10/11 00:08:13;;;;;;;11.55;4.82;;;;;;;16.68;76.08;100028.34;337161;29;1016;-70
2022/10/11 00:08:26;;;;;;;11.13;5.05;;;;;;;16.69;76.13;100027.44;335882;29;1228;-69
2022/10/11 00:08:38;;;;;;;10.98;5.07;;;;;;;16.70;76.03;100027.38;335862;29;1029;-69
2022/10/11 00:08:49;;;;;;;8.88;4.53;;;;;;;16.77;76.09;100036.59;335827;29;1220;-69
2022/10/11 00:09:02;;;;;;;9.40;4.60;;;;;;;16.84;76.00;100031.06;335958;29;1246;-69
2022/10/11 00:09:15;;;;;;;9.45;4.70;;;;;;;16.86;75.88;100026.56;335263;29;1016;-69
2022/10/11 00:09:27;;;;;;;9.85;4.88;;;;;;;16.87;75.85;100030.91;334881;29;1068;-70
2022/10/11 00:09:39;;;;;;;10.38;5.20;;;;;;;16.88;75.82;100030.84;334826;29;1070;-70
2022/10/11 00:09:51;;;;;;;13.02;5.50;;;;;;;16.88;75.65;100028.22;334649;29;2067;-69
2022/10/11 00:10:05;;;;;;;14.65;5.70;;;;;;;16.83;75.62;100034.63;336471;29;1087;-69
2022/10/11 00:10:18;;;;;;;12.95;5.60;;;;;;;16.84;75.82;100028.44;336948;29;1428;-69
2022/10/11 00:10:31;;;;;;;10.45;5.30;;;;;;;16.84;76.07;100033.69;335660;29;1302;-69
2022/10/11 00:10:43;;;;;;;10.15;5.30;;;;;;;16.84;76.05;100033.69;335848;29;1064;-69
2022/10/11 00:10:58;;;;;;;9.07;5.38;;;;;;;16.85;75.98;100030.97;335797;29;1224;-70
2022/10/11 00:11:10;;;;;;;11.40;5.57;;;;;;;16.87;75.78;100028.28;335646;29;1042;-71
2022/10/11 00:11:22;;;;;;;12.55;5.85;;;;;;;16.89;75.99;100036.94;334523;29;1310;-69
2022/10/11 00:11:34;;;;;;;10.18;5.50;;;;;;;16.88;75.98;100035.22;334351;29;1983;-69
2022/10/11 00:11:45;;;;;;;9.68;5.32;;;;;;;16.89;76.13;100032.53;334009;29;1529;-70
2022/10/11 00:11:58;;;;;;;9.70;5.30;;;;;;;16.92;75.86;100036.75;334159;29;2103;-69
2022/10/11 00:12:10;;;;;;;10.05;5.35;;;;;;;16.92;75.96;100035.00;334550;29;1064;-69
2022/10/11 00:12:22;;;;;;;9.98;5.10;;;;;;;16.93;75.72;100035.84;335121;29;1408;-69
2022/10/11 00:12:35;;;;;;;7.55;4.82;;;;;;;16.94;75.45;100037.53;334870;29;1703;-69
2022/10/11 00:12:47;;;;;;;8.05;4.82;;;;;;;16.95;75.68;100036.59;336268;29;2042;-70
2022/10/11 00:12:59;;;;;;;10.23;5.05;;;;;;;16.95;75.57;100031.34;337102;29;1046;-69
2022/10/11 00:13:11;;;;;;;10.35;5.07;;;;;;;16.96;75.80;100030.41;336925;29;1258;-69
2022/10/11 00:13:23;;;;;;;10.25;4.95;;;;;;;16.97;75.81;100030.34;337117;29;1380;-70
2022/10/11 00:13:35;;;;;;;9.10;5.20;;;;;;;16.99;75.63;100034.66;336900;29;1612;-69
2022/10/11 00:13:47;;;;;;;9.48;5.15;;;;;;;17.00;75.49;100031.09;336851;29;1796;-69
2022/10/11 00:13:59;;;;;;;8.65;4.75;;;;;;;17.01;75.36;100036.28;336901;29;1236;-70
2022/10/11 00:14:11;;;;;;;10.18;4.90;;;;;;;17.02;75.57;100027.44;337130;29;1101;-70
2022/10/11 00:14:24;;;;;;;9.77;4.97;;;;;;;17.04;75.47;100035.25;336118;29;1585;-69
2022/10/11 00:14:37;;;;;;;11.02;4.85;;;;;;;17.04;75.28;100036.09;335439;29;2041;-69
2022/10/11 00:14:49;;;;;;;10.20;4.93;;;;;;;17.05;75.45;100032.56;334499;29;1708;-69
2022/10/11 00:15:02;;;;;;;10.65;5.15;;;;;;;17.05;75.32;100032.56;335855;29;1179;-70
2022/10/11 00:15:17;;;;;;;11.40;5.00;;;;;;;17.06;75.27;100038.66;334574;29;1636;-69
2022/10/11 00:15:29;;;;;;;9.05;4.63;;;;;;;17.04;75.15;100030.84;335765;29;1061;-70
2022/10/11 00:15:41;;;;;;;8.98;5.03;;;;;;;17.04;75.40;100041.34;335030;29;1845;-70
2022/10/11 00:15:53;;;;;;;9.45;5.20;;;;;;;17.04;75.36;100035.25;335891;29;1842;-70
2022/10/11 00:16:09;;;;;;;10.52;5.25;;;;;;;17.05;75.28;100035.19;337041;29;1086;-70
2022/10/11 00:16:21;;;;;;;10.07;5.00;;;;;;;17.03;75.30;100034.41;336036;29;1639;-69
2022/10/11 00:16:33;;;;;;;11.05;5.03;;;;;;;17.05;75.60;100037.81;337086;29;1056;-69
2022/10/11 00:16:45;;;;;;;11.82;5.20;;;;;;;17.04;75.40;100030.84;335536;29;1703;-70
2022/10/11 00:16:57;;;;;;;9.18;5.07;;;;;;;17.06;75.18;100034.25;336254;29;1827;-69
2022/10/11 00:17:09;;;;;;;10.18;5.20;;;;;;;17.06;75.46;100031.59;337407;29;1164;-69
2022/10/11 00:17:21;;;;;;;10.20;5.30;;;;;;;17.07;75.43;100030.69;336183;29;1640;-70
2022/10/11 00:17:34;;;;;;;12.02;5.60;;;;;;;17.09;75.43;100033.25;335034;29;1647;-70
2022/10/11 00:17:46;;;;;;;11.00;5.68;;;;;;;17.10;75.32;100035.81;336074;29;1899;-70
2022/10/11 00:17:58;;;;;;;8.15;5.53;;;;;;;17.10;75.48;100035.81;335537;29;1986;-70
2022/10/11 00:18:16;;;;;;;9.23;5.38;;;;;;;17.08;75.09;100032.41;334452;29;1245;-70
2022/10/11 00:18:28;;;;;;;8.90;5.20;;;;;;;17.09;75.28;100036.72;334790;29;2369;-69
2022/10/11 00:18:40;;;;;;;8.88;5.35;;;;;;;17.10;75.20;100035.81;335171;29;1631;-69
2022/10/11 00:18:52;;;;;;;10.65;5.68;;;;;;;17.11;75.18;100037.47;335896;29;1755;-70
2022/10/11 00:19:04;;;;;;;10.95;5.85;;;;;;;17.10;75.06;100041.06;335280;29;1174;-69
2022/10/11 00:19:16;;;;;;;9.98;5.70;;;;;;;17.16;75.11;100038.09;335625;29;2146;-69
2022/10/11 00:19:28;;;;;;;9.63;5.40;;;;;;;17.13;74.88;100038.25;335039;29;2156;-69
2022/10/11 00:19:40;;;;;;;9.90;5.32;;;;;;;17.13;75.25;100040.88;335454;29;1670;-69
2022/10/11 00:19:52;;;;;;;8.77;5.05;;;;;;;17.14;75.19;100037.34;335921;29;1780;-69
2022/10/11 00:20:04;;;;;;;9.15;5.43;;;;;;;17.15;75.08;100039.00;336117;29;1044;-69
2022/10/11 00:20:17;;;;;;;9.48;5.47;;;;;;;17.14;75.15;100037.34;335206;29;2134;-69
2022/10/11 00:20:29;;;;;;;9.80;5.35;;;;;;;17.18;74.87;100030.09;334845;29;2143;-69
2022/10/11 00:20:41;;;;;;;9.00;5.00;;;;;;;17.20;75.10;100040.53;335494;29;1634;-70
2022/10/11 00:21:00;;;;;;;10.25;5.20;;;;;;;17.20;75.16;100030.03;335316;29;1843;-70
2022/10/11 00:21:14;;;;;;;13.60;5.40;;;;;;;17.21;74.80;100026.50;335458;29;1596;-69
2022/10/11 00:21:26;;;;;;;14.98;5.78;;;;;;;17.21;75.01;100037.00;336000;29;1156;-69
2022/10/11 00:21:38;;;;;;;13.70;5.82;;;;;;;17.22;74.92;100038.69;335361;29;1883;-69
2022/10/11 00:21:50;;;;;;;13.10;5.68;;;;;;;17.26;74.94;100034.97;335821;29;1365;-69
2022/10/11 00:22:02;;;;;;;13.13;5.47;;;;;;;17.23;74.75;100032.50;335446;29;2201;-69
2022/10/11 00:22:14;;;;;;;12.65;5.40;;;;;;;17.24;74.72;100034.19;336038;29;1768;-70
2022/10/11 00:22:26;;;;;;;13.02;5.55;;;;;;;17.23;74.90;100033.34;334669;29;1029;-69
2022/10/11 00:22:39;;;;;;;11.05;5.35;;;;;;;17.29;74.95;100034.81;334598;29;1850;-69
2022/10/11 00:22:52;;;;;;;9.07;5.00;;;;;;;17.26;74.71;100038.44;335186;29;1795;-69
2022/10/11 00:23:03;;;;;;;8.40;5.13;;;;;;;17.26;74.73;100030.53;334825;29;1036;-69
2022/10/11 00:23:15;;;;;;;10.65;5.20;;;;;;;17.27;74.65;100037.50;334683;29;1068;-69
2022/10/11 00:23:27;;;;;;;11.52;5.35;;;;;;;17.28;74.82;100033.94;337134;29;1317;-69
2022/10/11 00:23:40;;;;;;;9.85;5.05;;;;;;;17.29;74.67;100040.06;336225;29;1668;-69
2022/10/11 00:23:52;;;;;;;10.20;5.15;;;;;;;17.31;74.56;100032.94;335739;29;1650;-69
2022/10/11 00:24:05;;;;;;;11.23;5.43;;;;;;;17.31;74.50;100038.19;334871;29;1224;-70
2022/10/11 00:24:17;;;;;;;10.75;5.65;;;;;;;17.31;74.36;100032.94;334656;29;1797;-70
2022/10/11 00:24:28;;;;;;;10.35;5.25;;;;;;;17.31;74.38;100033.78;336648;29;1067;-69
2022/10/11 00:24:40;;;;;;;10.38;5.40;;;;;;;17.33;74.60;100041.59;337231;29;1032;-69
2022/10/11 00:24:52;;;;;;;10.93;5.60;;;;;;;17.32;74.48;100038.09;336316;29;1697;-69
2022/10/11 00:25:07;;;;;;;9.48;5.43;;;;;;;17.33;74.49;100033.69;335715;29;1194;-69
2022/10/11 00:25:19;;;;;;;9.70;5.35;;;;;;;17.34;74.38;100035.38;335986;29;1269;-69
2022/10/11 00:25:31;;;;;;;9.50;5.50;;;;;;;17.34;74.42;100040.63;335946;29;1203;-69
2022/10/11 00:25:43;;;;;;;8.57;5.10;;;;;;;17.32;74.32;100038.09;335234;29;1629;-70
2022/10/11 00:26:00;;;;;;;9.60;5.22;;;;;;;17.33;74.28;100031.06;335965;29;1824;-70
2022/10/11 00:26:12;;;;;;;9.93;5.38;;;;;;;17.33;74.40;100036.34;335898;29;1211;-70
2022/10/11 00:26:24;;;;;;;11.15;5.30;;;;;;;17.32;74.37;100035.47;335280;29;1758;-69
2022/10/11 00:26:36;;;;;;;11.80;5.28;;;;;;;17.31;74.34;100033.78;335779;29;1857;-69
2022/10/11 00:26:48;;;;;;;13.50;5.30;;;;;;;17.32;74.19;100034.63;335972;29;1065;-69
2022/10/11 00:26:59;;;;;;;12.93;5.55;;;;;;;17.32;74.32;100034.63;336548;29;1048;-69
2022/10/11 00:27:11;;;;;;;10.82;5.50;;;;;;;17.31;74.33;100038.19;337258;29;1269;-69
2022/10/11 00:27:23;;;;;;;10.20;5.40;;;;;;;17.30;74.28;100032.06;335494;29;1659;-69
2022/10/11 00:27:36;;;;;;;9.40;4.93;;;;;;;17.32;74.21;100037.25;335834;29;1835;-69
2022/10/11 00:27:48;;;;;;;10.18;4.90;;;;;;;17.28;74.26;100038.34;335586;29;1396;-70
2022/10/11 00:28:00;;;;;;;10.80;5.45;;;;;;;17.26;74.79;100037.59;335916;29;1962;-70
2022/10/11 00:28:11;;;;;;;12.30;5.85;;;;;;;17.23;74.79;100040.38;336950;29;1117;-69
2022/10/11 00:28:23;;;;;;;12.55;5.68;;;;;;;17.23;74.91;100040.38;335554;29;1292;-69
2022/10/11 00:28:36;;;;;;;10.95;5.10;;;;;;;17.23;74.78;100037.75;335768;29;1156;-70
2022/10/11 00:28:50;;;;;;;11.23;5.40;;;;;;;17.24;74.74;100039.44;335333;29;1692;-70
2022/10/11 00:29:03;;;;;;;10.18;5.40;;;;;;;17.25;74.55;100035.91;336038;29;1655;-70
2022/10/11 00:29:15;;;;;;;10.68;5.28;;;;;;;17.23;74.72;100037.75;337269;29;1206;-69
2022/10/11 00:29:27;;;;;;;11.77;5.38;;;;;;;17.25;74.49;100043.78;334669;29;1083;-69
2022/10/11 00:29:39;;;;;;;11.45;5.63;;;;;;;17.23;74.55;100038.59;334505;29;1705;-69
2022/10/11 00:29:51;;;;;;;12.40;5.57;;;;;;;17.28;74.43;100041.81;335019;29;1523;-69
2022/10/11 00:30:05;;;;;;;10.73;5.30;;;;;;;17.25;74.50;100036.75;334358;29;1730;-69
2022/10/11 00:30:17;;;;;;;11.05;5.50;;;;;;;17.24;74.36;100034.19;335296;29;1705;-69
2022/10/11 00:30:30;;;;;;;11.75;5.72;;;;;;;17.25;74.49;100043.78;336088;29;1269;-70
2022/10/11 00:30:42;;;;;;;11.75;5.82;;;;;;;17.17;74.78;100037.16;335555;29;1637;-70
2022/10/11 00:30:54;;;;;;;13.00;5.80;;;;;;;17.14;74.88;100036.47;335229;29;1593;-69
2022/10/11 00:31:12;;;;;;;13.43;5.57;;;;;;;17.14;74.59;100036.47;336091;29;1113;-69
2022/10/11 00:31:24;;;;;;;12.38;5.60;;;;;;;17.10;74.80;100041.06;334945;29;1722;-70
2022/10/11 00:31:36;;;;;;;13.10;5.88;;;;;;;17.07;75.09;100035.94;335715;29;1597;-70
2022/10/11 00:31:48;;;;;;;12.90;5.93;;;;;;;17.08;75.20;100042.91;336038;29;1186;-69
2022/10/11 00:32:00;;;;;;;11.52;5.63;;;;;;;17.09;74.99;100034.09;336096;29;1166;-69
2022/10/11 00:32:12;;;;;;;10.50;5.78;;;;;;;17.10;75.16;100040.19;335969;29;1044;-70
2022/10/11 00:32:24;;;;;;;9.75;5.60;;;;;;;17.10;75.28;100042.81;336033;29;1531;-70
2022/10/11 00:32:37;;;;;;;11.43;6.00;;;;;;;17.11;75.05;100036.63;335928;29;1905;-70
2022/10/11 00:32:49;;;;;;;11.38;5.82;;;;;;;17.12;75.18;100038.31;334664;29;1565;-69
2022/10/11 00:33:01;;;;;;;10.95;5.53;;;;;;;17.13;75.01;100035.63;336603;29;1064;-69
2022/10/11 00:33:13;;;;;;;11.50;5.70;;;;;;;17.12;75.16;100039.19;336020;29;1334;-69
2022/10/11 00:33:25;;;;;;;11.77;6.00;;;;;;;17.15;75.06;100038.19;335680;29;1295;-69
2022/10/11 00:33:37;;;;;;;13.63;5.95;;;;;;;17.16;74.95;100040.72;335567;29;1720;-69
2022/10/11 00:33:49;;;;;;;13.90;5.75;;;;;;;17.17;74.83;100039.78;334930;29;1735;-69
2022/10/11 00:34:01;;;;;;;11.85;5.43;;;;;;;17.19;74.82;100044.97;335893;29;1041;-69
2022/10/11 00:34:14;;;;;;;9.77;5.68;;;;;;;17.19;74.88;100039.69;335863;29;1288;-69
2022/10/11 00:34:26;;;;;;;10.85;6.18;;;;;;;17.19;74.86;100036.22;335411;29;1679;-69
2022/10/11 00:34:38;;;;;;;11.23;6.10;;;;;;;17.20;75.13;100041.38;335734;29;1610;-68
2022/10/11 00:34:50;;;;;;;10.95;6.10;;;;;;;17.19;75.05;100034.44;335897;29;1233;-69
2022/10/11 00:35:05;;;;;;;11.02;5.85;;;;;;;17.23;75.16;100035.97;336050;29;1164;-69
2022/10/11 00:35:17;;;;;;;10.95;5.60;;;;;;;17.25;74.95;100035.91;335937;29;1248;-69
2022/10/11 00:35:29;;;;;;;9.85;5.85;;;;;;;17.26;74.93;100034.97;335852;29;1122;-69
2022/10/11 00:35:41;;;;;;;10.57;5.85;;;;;;;17.27;74.92;100036.66;335205;29;1743;-69
2022/10/11 00:35:53;;;;;;;13.30;5.97;;;;;;;17.20;74.74;100035.28;335863;29;1692;-69
2022/10/11 00:36:06;;;;;;;13.45;6.30;;;;;;;17.16;74.87;100040.72;336019;29;1063;-69
2022/10/11 00:36:20;;;;;;;13.55;6.45;;;;;;;17.13;75.10;100035.63;334907;29;1685;-69
2022/10/11 00:36:32;;;;;;;12.57;5.88;;;;;;;17.12;75.15;100039.19;334654;29;1105;-69
2022/10/11 00:36:44;;;;;;;11.30;5.72;;;;;;;17.10;75.32;100033.19;335117;29;1656;-69
2022/10/11 00:36:56;;;;;;;9.68;5.50;;;;;;;17.09;75.34;100031.47;335844;29;1821;-70
2022/10/11 00:37:08;;;;;;;9.75;5.50;;;;;;;17.10;75.44;100038.44;335949;29;948;-69
2022/10/11 00:37:20;;;;;;;9.00;5.70;;;;;;;17.11;75.39;100037.47;335782;29;1513;-69
2022/10/11 00:37:34;;;;;;;11.55;5.80;;;;;;;17.11;75.18;100034.84;335039;29;1805;-69
2022/10/11 00:37:46;;;;;;;12.48;5.43;;;;;;;17.12;75.44;100039.19;336140;29;1754;-70
2022/10/11 00:37:58;;;;;;;11.77;5.63;;;;;;;17.13;75.19;100037.41;336198;29;1064;-69
2022/10/11 00:38:10;;;;;;;13.18;5.60;;;;;;;17.12;75.50;100038.31;335836;29;1818;-70
2022/10/11 00:38:22;;;;;;;14.65;5.60;;;;;;;17.12;75.24;100038.31;336344;29;1272;-70
2022/10/11 00:38:34;;;;;;;13.40;5.75;;;;;;;17.11;75.44;100031.38;335781;29;1032;-70
2022/10/11 00:38:46;;;;;;;13.10;5.93;;;;;;;17.12;75.44;100044.44;335114;29;1724;-70
2022/10/11 00:38:58;;;;;;;12.45;6.07;;;;;;;17.12;75.43;100033.06;335946;29;1825;-70
2022/10/11 00:39:10;;;;;;;11.27;6.03;;;;;;;17.12;75.48;100033.06;335782;29;1243;-70
2022/10/11 00:39:25;;;;;;;10.07;6.18;;;;;;;17.11;75.38;100032.22;335899;29;1535;-70
2022/10/11 00:39:37;;;;;;;13.00;6.43;;;;;;;17.11;75.38;100032.22;335982;29;1419;-69
2022/10/11 00:39:49;;;;;;;16.27;6.28;;;;;;;17.11;75.25;100031.38;335887;29;1986;-69
2022/10/11 00:40:02;;;;;;;16.75;6.43;;;;;;;17.12;75.45;100036.56;335772;29;1268;-69
2022/10/11 00:40:17;;;;;;;13.65;6.40;;;;;;;17.09;75.73;100043.75;336102;29;1223;-70
2022/10/11 00:40:29;;;;;;;12.13;6.70;;;;;;;17.08;75.41;100035.03;334611;29;1657;-70
2022/10/11 00:40:41;;;;;;;10.95;6.80;;;;;;;16.99;75.59;100038.13;333504;29;5213;-70
2022/10/11 00:40:53;;;;;;;11.23;6.85;;;;;;;16.99;76.04;100042.56;334516;29;3669;-70
2022/10/11 00:41:05;;;;;;;10.95;6.75;;;;;;;16.99;76.00;100038.13;333621;29;5783;-70
2022/10/11 00:41:17;;;;;;;9.82;6.63;;;;;;;17.04;75.82;100036.09;335127;29;6000;-70
2022/10/11 00:41:29;;;;;;;10.18;6.25;;;;;;;17.07;75.67;100041.19;337000;29;1207;-70
2022/10/11 00:41:41;;;;;;;13.52;6.55;;;;;;;17.06;75.49;100042.13;336009;29;3629;-70
2022/10/11 00:41:54;;;;;;;16.47;6.53;;;;;;;17.07;75.43;100033.31;334942;29;1062;-70
2022/10/11 00:42:12;;;;;;;18.75;6.40;;;;;;;17.12;75.28;100033.94;334511;29;1005;-70
2022/10/11 00:42:23;;;;;;;13.63;6.15;;;;;;;17.09;75.60;100038.50;335422;29;1737;-70
2022/10/11 00:42:35;;;;;;;11.23;6.22;;;;;;;17.11;75.64;100034.84;336041;29;1681;-69
2022/10/11 00:42:47;;;;;;;12.95;6.47;;;;;;;17.10;75.58;100040.19;336161;29;1340;-70
2022/10/11 00:43:00;;;;;;;13.32;6.47;;;;;;;17.08;75.65;100037.66;335457;29;3587;-70
2022/10/11 00:43:21;;;;;;;12.48;6.38;;;;;;;17.10;75.56;100038.44;335628;29;1218;-70
2022/10/11 00:43:33;;;;;;;12.18;6.78;;;;;;;17.12;75.32;100041.81;335506;29;1833;-69
2022/10/11 00:43:45;;;;;;;12.80;7.32;;;;;;;17.13;75.54;100034.78;337026;29;1158;-70
2022/10/11 00:44:19;;;;;;;13.65;7.35;;;;;;;17.14;75.40;100039.97;336985;29;1069;-70
2022/10/11 00:44:32;;;;;;;12.02;6.57;;;;;;;17.15;75.23;100036.38;336952;29;1216;-70
2022/10/11 00:44:48;;;;;;;10.25;6.65;;;;;;;17.17;75.38;100045.03;336817;29;1109;-70
2022/10/11 00:45:30;;;;;;;13.90;6.80;;;;;;;17.14;75.57;100042.59;337457;29;1115;-70
2022/10/11 00:46:01;;;;;;;13.23;6.70;;;;;;;17.16;75.50;100040.72;334595;29;1077;-70
2022/10/11 00:46:16;;;;;;;13.93;7.03;;;;;;;17.17;75.35;100039.78;334777;29;1087;-70
2022/10/11 00:46:30;;;;;;;14.23;7.05;;;;;;;17.14;75.41;100034.72;335667;29;1077;-70
2022/10/11 00:46:49;;;;;;;11.48;6.75;;;;;;;17.13;75.49;100042.66;336970;29;1193;-70
2022/10/11 00:47:11;;;;;;;12.25;6.80;;;;;;;17.12;75.43;100044.44;336103;29;1606;-70
2022/10/11 00:47:23;;;;;;;14.18;6.80;;;;;;;17.14;75.51;100039.97;336285;29;1325;-70
2022/10/11 00:47:35;;;;;;;13.80;6.80;;;;;;;17.16;75.27;100045.97;336692;29;1527;-70
2022/10/11 00:47:47;;;;;;;12.23;6.55;;;;;;;17.19;75.11;100044.13;337108;29;1068;-70
2022/10/11 00:48:02;;;;;;;11.85;6.40;;;;;;;17.16;75.40;100048.59;336147;29;2296;-70
2022/10/11 00:48:22;;;;;;;14.20;6.75;;;;;;;17.13;75.59;100046.13;336994;29;955;-70
2022/10/11 00:48:47;;;;;;;14.98;6.78;;;;;;;17.14;75.46;100042.59;335628;29;1085;-70
2022/10/11 00:49:04;;;;;;;14.40;7.05;;;;;;;17.15;75.48;100043.44;335448;29;1665;-70
2022/10/11 00:49:40;;;;;;;13.95;7.00;;;;;;;17.15;75.32;100041.63;335171;29;1205;-70
2022/10/11 00:49:55;;;;;;;13.82;7.32;;;;;;;17.16;75.45;100043.34;335566;29;1008;-70
2022/10/11 00:50:10;;;;;;;14.68;7.50;;;;;;;17.17;75.17;100034.53;336092;29;1259;-70
2022/10/11 00:50:23;;;;;;;12.93;7.10;;;;;;;17.19;75.47;100044.13;335474;29;1646;-70
2022/10/11 00:50:36;;;;;;;13.90;7.13;;;;;;;17.16;75.31;100045.97;335783;29;1009;-70
2022/10/11 00:50:48;;;;;;;14.90;7.53;;;;;;;17.17;75.47;100041.56;334968;29;2266;-70
2022/10/11 00:51:03;;;;;;;16.07;7.50;;;;;;;17.20;75.19;100045.78;334998;29;2311;-70
2022/10/11 00:51:22;;;;;;;13.27;7.40;;;;;;;17.24;75.03;100049.94;335717;29;1070;-70
2022/10/11 00:51:56;;;;;;;11.68;7.43;;;;;;;17.27;74.92;100042.75;334562;29;1035;-70
2022/10/11 00:52:30;;;;;;;11.00;6.82;;;;;;;17.28;74.71;100046.22;334674;29;1163;-69
2022/10/11 00:52:46;;;;;;;12.18;6.80;;;;;;;17.29;74.90;100050.56;337005;29;1112;-69
2022/10/11 00:53:02;;;;;;;12.57;6.78;;;;;;;17.27;74.91;100047.19;336593;29;2002;-69
2022/10/11 00:53:14;;;;;;;13.30;7.22;;;;;;;17.28;74.76;100047.06;336405;29;1858;-69
2022/10/11 00:53:28;;;;;;;12.60;7.30;;;;;;;17.28;74.77;100044.44;335826;29;1203;-70
2022/10/11 00:53:41;;;;;;;13.10;7.22;;;;;;;17.30;74.80;100052.25;335537;29;1084;-70
2022/10/11 00:53:52;;;;;;;14.63;7.43;;;;;;;17.28;74.89;100049.69;335838;29;1276;-70
2022/10/11 00:54:06;;;;;;;14.90;7.40;;;;;;;17.28;74.81;100048.84;335756;29;1029;-70
2022/10/11 00:54:22;;;;;;;13.25;7.32;;;;;;;17.27;74.91;100047.19;336876;29;1263;-69
2022/10/11 00:54:40;;;;;;;15.30;7.25;;;;;;;17.25;74.87;100049.03;337604;29;2373;-69
2022/10/11 00:54:52;;;;;;;15.98;7.05;;;;;;;17.23;74.79;100048.28;336953;29;1024;-69
2022/10/11 00:55:13;;;;;;;15.88;7.45;;;;;;;17.19;75.06;100054.63;337115;29;1302;-70
2022/10/11 00:55:30;;;;;;;16.45;7.43;;;;;;;17.19;75.02;100052.00;337193;29;1019;-70
2022/10/11 00:55:57;;;;;;;15.50;7.35;;;;;;;17.10;75.32;100056.81;336991;29;1110;-70
2022/10/11 00:56:16;;;;;;;14.52;7.03;;;;;;;17.10;75.49;100051.56;335799;29;1716;-70
2022/10/11 00:56:37;;;;;;;14.80;7.35;;;;;;;17.09;75.41;100049.84;335785;29;1310;-70
2022/10/11 00:56:55;;;;;;;14.80;7.50;;;;;;;17.08;75.51;100050.78;335647;29;1311;-70
2022/10/11 00:57:12;;;;;;;15.60;7.25;;;;;;;17.06;75.70;100055.25;335657;29;1449;-70
2022/10/11 00:57:29;;;;;;;13.80;7.53;;;;;;;17.07;75.91;100056.13;336608;29;1328;-70
2022/10/11 00:57:44;;;;;;;13.55;7.60;;;;;;;17.04;75.71;100057.09;336904;29;1109;-70
2022/10/11 00:57:57;;;;;;;16.27;7.57;;;;;;;17.03;75.93;100049.34;336419;29;1767;-70
2022/10/11 00:58:11;;;;;;;15.93;7.60;;;;;;;17.02;75.98;100051.09;336585;29;1359;-70
2022/10/11 00:58:23;;;;;;;14.35;7.47;;;;;;;17.03;75.82;100047.56;335951;29;1300;-70
2022/10/11 00:58:37;;;;;;;14.52;7.45;;;;;;;16.98;76.08;100052.19;335972;29;1046;-70
2022/10/11 00:58:49;;;;;;;16.92;7.63;;;;;;;16.99;76.19;100053.91;336116;29;1146;-70
2022/10/11 00:59:05;;;;;;;16.02;7.50;;;;;;;17.01;76.19;100054.66;336064;29;1220;-70
2022/10/11 00:59:22;;;;;;;15.52;7.57;;;;;;;17.03;76.18;100059.84;335364;29;1861;-69
2022/10/11 00:59:39;;;;;;;15.07;7.60;;;;;;;17.03;76.38;100050.19;335933;29;1186;-70
2022/10/11 00:59:53;;;;;;;13.68;7.28;;;;;;;17.03;76.12;100049.34;334877;29;1076;-69
2022/10/11 01:00:09;;;;;;;14.88;7.13;;;;;;;17.05;75.92;100053.56;334759;29;1378;-69
2022/10/11 01:00:21;;;;;;;17.27;7.00;;;;;;;17.07;76.01;100051.72;335357;29;1320;-69
2022/10/11 01:00:33;;;;;;;16.05;7.05;;;;;;;17.07;75.98;100054.34;335913;29;1046;-69
2022/10/11 01:00:45;;;;;;;16.17;7.45;;;;;;;17.08;75.97;100053.41;335840;29;1261;-69
2022/10/11 01:00:57;;;;;;;12.27;7.40;;;;;;;17.08;75.68;100053.41;335784;29;1055;-70
2022/10/11 01:01:09;;;;;;;11.43;7.13;;;;;;;17.07;75.87;100051.72;335158;29;2043;-70
2022/10/11 01:01:21;;;;;;;12.02;6.80;;;;;;;17.08;75.97;100055.19;335753;29;1784;-69
2022/10/11 01:01:33;;;;;;;11.48;6.50;;;;;;;17.08;75.73;100050.78;336067;29;1060;-70
2022/10/11 01:01:45;;;;;;;12.07;6.82;;;;;;;17.09;75.87;100049.84;336080;29;1185;-69
2022/10/11 01:01:57;;;;;;;13.43;7.32;;;;;;;17.08;75.88;100050.78;335934;29;1134;-69
2022/10/11 01:02:11;;;;;;;13.88;7.38;;;;;;;17.09;75.80;100054.25;335111;29;2389;-70
2022/10/11 01:02:23;;;;;;;14.75;7.10;;;;;;;17.05;75.97;100048.31;333732;29;6607;-69
2022/10/11 01:02:36;;;;;;;14.75;6.88;;;;;;;17.04;75.84;100051.03;334527;29;6727;-69
2022/10/11 01:02:48;;;;;;;13.23;7.20;;;;;;;17.04;76.13;100051.84;334728;29;1306;-70
2022/10/11 01:03:01;;;;;;;14.20;7.68;;;;;;;17.03;76.16;100057.22;334368;29;3994;-69
2022/10/11 01:03:16;;;;;;;17.45;7.50;;;;;;;17.03;75.90;100055.44;334811;29;1330;-70
2022/10/11 01:03:30;;;;;;;17.27;7.18;;;;;;;17.05;76.05;100053.56;334654;29;871;-69
2022/10/11 01:03:43;;;;;;;14.63;7.30;;;;;;;17.04;76.13;100057.09;334724;29;1121;-70
2022/10/11 01:03:56;;;;;;;15.63;7.57;;;;;;;17.04;76.02;100046.59;335125;29;2114;-70